Time;durP1;ratioP1;P1;durP2;ratioP2;P2;SDS_P1;SDS_P2;PMS_P1;PMS_P2;Temp;Humidity;BMP_temperature;BMP_pressure;BME280_temperature;BME280_humidity;BME280_pressure;Samples;Min_cycle;Max_cycle;Signal;HPM_P1;HPM_P2
2021/01/18 00:00:59;;;;;;;23.98;13.10;;;6.30;73.90;;;;;;5054726;28;20178;-72
2021/01/18 00:03:25;;;;;;;23.17;12.85;;;6.20;73.80;;;;;;5054023;28;20244;-72
2021/01/18 00:05:51;;;;;;;21.98;12.27;;;6.20;74.40;;;;;;5054752;28;20048;-72
2021/01/18 00:08:16;;;;;;;19.33;11.68;;;6.10;73.90;;;;;;5054332;28;20048;-72
2021/01/18 00:10:42;;;;;;;22.92;12.50;;;6.10;73.90;;;;;;5054407;28;20041;-72
2021/01/18 00:13:08;;;;;;;19.05;11.55;;;6.00;73.90;;;;;;5054216;28;20120;-72
2021/01/18 00:15:34;;;;;;;19.33;11.27;;;6.00;74.00;;;;;;5054430;28;20037;-72
2021/01/18 00:17:59;;;;;;;18.00;10.93;;;6.10;74.00;;;;;;5054340;28;20457;-72
2021/01/18 00:20:25;;;;;;;15.77;9.48;;;5.90;73.90;;;;;;5053488;28;20075;-72
2021/01/18 00:22:51;;;;;;;15.88;9.07;;;6.10;74.00;;;;;;5053750;28;20045;-72
2021/01/18 00:25:20;;;;;;;18.20;9.65;;;6.00;74.00;;;;;;5054240;28;20499;-72
2021/01/18 00:27:46;;;;;;;19.85;10.00;;;5.90;73.90;;;;;;5053837;28;20067;-72
2021/01/18 00:30:21;;;;;;;18.15;10.80;;;5.80;73.80;;;;;;5054215;28;20045;-72
2021/01/18 00:32:48;;;;;;;18.17;10.23;;;6.10;74.10;;;;;;5053677;28;20507;-72
2021/01/18 00:35:15;;;;;;;20.30;10.23;;;6.00;74.10;;;;;;5053733;28;20037;-72
2021/01/18 00:37:42;;;;;;;20.83;10.18;;;5.90;74.10;;;;;;5053807;28;20041;-72
2021/01/18 00:40:09;;;;;;;21.98;10.52;;;6.10;74.20;;;;;;5054009;28;20173;-70
2021/01/18 00:42:35;;;;;;;16.50;9.63;;;6.00;74.20;;;;;;5054052;28;20129;-72
2021/01/18 00:45:01;;;;;;;20.58;10.68;;;5.90;74.10;;;;;;5054031;28;20124;-72
2021/01/18 00:47:26;;;;;;;21.35;10.90;;;6.00;74.30;;;;;;5054066;28;20039;-70
2021/01/18 00:49:52;;;;;;;20.70;10.85;;;6.00;74.30;;;;;;5053579;28;20041;-72
2021/01/18 00:52:18;;;;;;;18.88;10.65;;;6.00;74.30;;;;;;5053598;28;20087;-72
2021/01/18 00:54:44;;;;;;;18.88;10.20;;;6.10;74.40;;;;;;5054576;28;20041;-72
2021/01/18 00:57:09;;;;;;;19.90;10.07;;;5.90;74.30;;;;;;5053605;28;20037;-72
2021/01/18 00:59:35;;;;;;;23.35;11.02;;;6.00;74.30;;;;;;5053650;28;20045;-72
2021/01/18 01:02:01;;;;;;;20.90;10.00;;;6.00;74.40;;;;;;5053842;28;20048;-72
2021/01/18 01:04:27;;;;;;;18.65;9.80;;;6.60;74.80;;;;;;5054063;28;20041;-72
2021/01/18 01:06:53;;;;;;;19.25;9.60;;;6.00;74.50;;;;;;5053206;28;20127;-72
2021/01/18 01:09:18;;;;;;;17.23;9.25;;;5.90;74.50;;;;;;5053310;28;20129;-72
2021/01/18 01:11:45;;;;;;;20.08;9.35;;;5.80;74.50;;;;;;5053669;28;20041;-72
2021/01/18 01:14:12;;;;;;;15.18;8.45;;;5.90;74.60;;;;;;5053265;28;20044;-72
2021/01/18 01:16:38;;;;;;;18.55;8.40;;;5.90;74.60;;;;;;5053608;28;20044;-72
2021/01/18 01:19:04;;;;;;;16.40;10.23;;;6.00;74.70;;;;;;5053890;28;20041;-72
2021/01/18 01:21:30;;;;;;;14.77;9.05;;;5.80;74.50;;;;;;5053213;28;20150;-72
2021/01/18 01:23:56;;;;;;;17.13;9.20;;;5.80;74.50;;;;;;5053082;28;20127;-72
2021/01/18 01:26:23;;;;;;;13.75;8.20;;;5.80;74.70;;;;;;5053331;28;20106;-72
2021/01/18 01:28:48;;;;;;;18.52;8.68;;;5.70;74.70;;;;;;5052935;28;20071;-72
2021/01/18 01:31:14;;;;;;;18.40;8.10;;;6.00;75.00;;;;;;5052244;28;20500;-72
2021/01/18 01:33:40;;;;;;;14.38;7.03;;;6.10;74.90;;;;;;5053060;28;20455;-72
2021/01/18 01:36:06;;;;;;;13.88;6.38;;;5.90;74.80;;;;;;5052996;28;20037;-72
2021/01/18 01:38:34;;;;;;;17.17;7.90;;;5.90;74.70;;;;;;5053220;28;20067;-72
2021/01/18 01:41:00;;;;;;;15.25;6.93;;;6.00;74.70;;;;;;5053465;28;20128;-72
2021/01/18 01:43:26;;;;;;;13.68;6.55;;;6.00;74.60;;;;;;5053361;28;20492;-72
2021/01/18 01:45:52;;;;;;;12.60;6.05;;;5.70;74.50;;;;;;5053055;28;20048;-72
2021/01/18 01:48:19;;;;;;;14.57;7.75;;;5.70;74.60;;;;;;5052985;28;20041;-72
2021/01/18 01:50:46;;;;;;;15.85;7.70;;;6.10;74.80;;;;;;5052555;28;20041;-72
2021/01/18 01:53:15;;;;;;;16.17;4.80;;;5.90;74.80;;;;;;5052587;28;20500;-72
2021/01/18 01:55:41;;;;;;;9.07;3.80;;;5.80;74.70;;;;;;5052785;28;20492;-71
2021/01/18 01:58:08;;;;;;;14.50;6.78;;;5.90;74.90;;;;;;5052717;28;20041;-70
2021/01/18 02:00:37;;;;;;;12.77;5.65;;;5.70;74.70;;;;;;5053019;28;20079;-71
2021/01/18 02:03:07;;;;;;;18.05;4.57;;;5.80;74.80;;;;;;5053417;28;20039;-71
2021/01/18 02:05:33;;;;;;;12.07;4.75;;;5.60;74.70;;;;;;5056326;28;20068;-71
2021/01/18 02:08:04;;;;;;;13.23;5.13;;;5.70;74.90;;;;;;5056553;28;20091;-71
2021/01/18 02:10:31;;;;;;;12.20;5.80;;;5.90;75.10;;;;;;5056930;28;20041;-71
2021/01/18 02:13:01;;;;;;;15.70;6.60;;;5.70;75.00;;;;;;5055941;28;20044;-71
2021/01/18 02:15:33;;;;;;;11.90;5.65;;;5.60;75.00;;;;;;5055676;28;20041;-71
2021/01/18 02:18:10;;;;;;;16.75;10.18;;;5.90;75.20;;;;;;5056346;28;20063;-71
2021/01/18 02:20:56;;;;;;;28.95;15.23;;;5.60;74.80;;;;;;5056191;28;20069;-71
2021/01/18 02:23:46;;;;;;;27.85;14.77;;;5.60;74.80;;;;;;5055988;28;20094;-71
2021/01/18 02:26:21;;;;;;;26.35;12.70;;;5.50;74.70;;;;;;5055933;28;20491;-71
2021/01/18 02:29:24;;;;;;;22.10;11.73;;;5.50;74.70;;;;;;5055959;28;20041;-71
2021/01/18 02:32:09;;;;;;;22.98;10.82;;;5.50;74.70;;;;;;5055952;28;20033;-71
2021/01/18 02:35:02;;;;;;;19.98;10.07;;;5.30;74.70;;;;;;5056156;28;20033;-71
2021/01/18 02:37:34;;;;;;;19.55;9.65;;;5.30;74.70;;;;;;5055997;28;20040;-71
2021/01/18 02:40:25;;;;;;;16.65;8.80;;;5.00;74.70;;;;;;5055730;28;20069;-71
2021/01/18 02:42:53;;;;;;;20.83;10.85;;;5.20;74.90;;;;;;5055912;28;20055;-71
2021/01/18 02:45:22;;;;;;;24.42;11.40;;;5.00;75.40;;;;;;5055946;28;20033;-71
2021/01/18 02:47:49;;;;;;;25.45;11.85;;;5.10;75.00;;;;;;5055820;28;20045;-71
2021/01/18 02:50:16;;;;;;;24.23;11.98;;;5.10;74.90;;;;;;5055409;28;20499;-71
2021/01/18 02:52:43;;;;;;;27.38;12.18;;;5.00;74.80;;;;;;5055502;28;20041;-71
2021/01/18 02:55:12;;;;;;;23.25;12.05;;;5.10;74.80;;;;;;5056041;28;20040;-71
2021/01/18 02:57:41;;;;;;;23.85;11.57;;;5.10;74.70;;;;;;5055554;28;20037;-71
2021/01/18 03:00:13;;;;;;;19.65;10.52;;;5.20;74.70;;;;;;5055486;28;20045;-71
2021/01/18 03:02:42;;;;;;;17.80;9.70;;;5.00;74.50;;;;;;5055739;28;20062;-71
2021/01/18 03:05:24;;;;;;;12.38;5.95;;;5.30;74.70;;;;;;5055575;28;20037;-71
2021/01/18 03:07:58;;;;;;;15.85;7.30;;;5.10;74.70;;;;;;5055818;28;20065;-71
2021/01/18 03:10:41;;;;;;;16.02;8.95;;;5.00;74.70;;;;;;5055257;28;20043;-71
2021/01/18 03:13:36;;;;;;;13.25;6.30;;;5.10;74.80;;;;;;5055392;28;20043;-70
2021/01/18 03:16:19;;;;;;;13.07;5.93;;;4.90;74.60;;;;;;5041638;28;20064;-70
2021/01/18 03:18:48;;;;;;;19.27;10.70;;;5.00;74.70;;;;;;5055166;28;20036;-71
2021/01/18 03:21:15;;;;;;;20.33;11.68;;;5.40;75.10;;;;;;5054596;28;20140;-70
2021/01/18 03:23:42;;;;;;;21.60;12.57;;;5.20;74.90;;;;;;5054463;28;20045;-72
2021/01/18 03:26:09;;;;;;;18.73;10.70;;;5.10;74.80;;;;;;5054668;28;20040;-72
2021/01/18 03:28:35;;;;;;;20.63;11.68;;;5.20;74.90;;;;;;5054758;28;20032;-72
2021/01/18 03:31:01;;;;;;;23.20;13.10;;;5.10;74.90;;;;;;5054763;28;20052;-72
2021/01/18 03:33:27;;;;;;;18.95;12.25;;;5.20;75.10;;;;;;5054527;28;20033;-70
2021/01/18 03:35:56;;;;;;;20.10;11.25;;;5.40;75.20;;;;;;5054261;28;20127;-72
2021/01/18 03:38:23;;;;;;;22.58;11.90;;;5.20;75.10;;;;;;5054743;28;20068;-70
2021/01/18 03:40:52;;;;;;;17.75;10.93;;;5.20;75.10;;;;;;5055109;28;20049;-72
2021/01/18 03:43:20;;;;;;;18.52;10.35;;;5.50;75.30;;;;;;5054517;28;20040;-70
2021/01/18 03:45:47;;;;;;;18.98;11.18;;;5.40;75.30;;;;;;5054351;28;20550;-70
2021/01/18 03:48:13;;;;;;;17.35;10.65;;;5.30;75.20;;;;;;5054333;28;20518;-72
2021/01/18 03:50:40;;;;;;;16.63;9.85;;;5.20;75.10;;;;;;5054212;28;20153;-72
2021/01/18 03:53:07;;;;;;;18.67;9.57;;;5.30;75.10;;;;;;5054999;28;20033;-70
2021/01/18 03:55:33;;;;;;;15.32;9.65;;;5.20;75.10;;;;;;5054432;28;20037;-72
2021/01/18 03:57:59;;;;;;;13.18;8.32;;;5.80;75.40;;;;;;5054564;28;20047;-72
2021/01/18 04:00:27;;;;;;;17.50;9.88;;;5.50;75.20;;;;;;5054683;28;20106;-70
2021/01/18 04:02:53;;;;;;;16.40;9.05;;;5.20;75.10;;;;;;5054476;28;20061;-72
2021/01/18 04:05:21;;;;;;;17.80;8.50;;;5.10;75.10;;;;;;5053630;28;20037;-70
2021/01/18 04:07:48;;;;;;;15.50;10.15;;;5.40;75.30;;;;;;5069330;28;20450;-70
2021/01/18 04:10:16;;;;;;;18.80;10.93;;;5.10;75.00;;;;;;5053549;28;20520;-70
2021/01/18 04:12:43;;;;;;;23.00;11.43;;;5.10;75.10;;;;;;5054361;28;20036;-72
2021/01/18 04:15:12;;;;;;;20.83;11.07;;;5.00;75.00;;;;;;5053611;28;20068;-72
2021/01/18 04:17:43;;;;;;;20.58;12.40;;;5.00;74.90;;;;;;5053855;28;20045;-72
2021/01/18 04:20:10;;;;;;;20.58;12.27;;;5.10;75.00;;;;;;5054123;28;20048;-72
2021/01/18 04:22:36;;;;;;;24.42;11.60;;;4.90;74.80;;;;;;5053394;28;20033;-72
2021/01/18 04:25:03;;;;;;;16.20;11.02;;;5.10;75.00;;;;;;5053308;28;20128;-72
2021/01/18 04:27:29;;;;;;;16.95;10.77;;;5.00;75.00;;;;;;5053713;28;20033;-72
2021/01/18 04:29:55;;;;;;;17.10;10.13;;;4.80;75.00;;;;;;5053628;28;20044;-72
2021/01/18 04:32:21;;;;;;;16.80;10.55;;;5.00;75.20;;;;;;5053590;28;20047;-72
2021/01/18 04:34:46;;;;;;;14.93;10.15;;;5.00;75.30;;;;;;5054048;28;20482;-72
2021/01/18 04:37:12;;;;;;;13.77;10.02;;;5.20;76.00;;;;;;5053528;28;20040;-72
2021/01/18 04:39:38;;;;;;;16.88;10.63;;;5.00;75.40;;;;;;5053369;28;20153;-72
2021/01/18 04:42:05;;;;;;;13.80;9.85;;;4.90;75.30;;;;;;5053864;28;20040;-72
2021/01/18 04:44:31;;;;;;;16.33;9.68;;;5.20;75.50;;;;;;5053563;28;20048;-72
2021/01/18 04:46:57;;;;;;;16.40;10.38;;;5.00;75.30;;;;;;5053975;28;20036;-72
2021/01/18 04:49:23;;;;;;;16.33;10.82;;;5.10;75.50;;;;;;5053626;28;20075;-72
2021/01/18 04:51:58;;;;;;;15.90;9.80;;;5.20;75.60;;;;;;5053452;28;20044;-72
2021/01/18 04:54:26;;;;;;;16.02;10.32;;;5.20;75.60;;;;;;5053776;28;20559;-72
2021/01/18 04:57:03;;;;;;;13.98;9.40;;;5.10;75.50;;;;;;5053537;28;20040;-72
2021/01/18 04:59:42;;;;;;;17.38;11.10;;;5.20;75.50;;;;;;5053392;28;20060;-72
2021/01/18 05:02:15;;;;;;;16.15;10.05;;;5.10;75.40;;;;;;5053625;28;20043;-72
2021/01/18 05:04:46;;;;;;;15.68;10.13;;;5.20;75.40;;;;;;5053087;28;20512;-71
2021/01/18 05:07:24;;;;;;;14.10;9.63;;;5.40;75.40;;;;;;5053388;28;20480;-71
2021/01/18 05:10:11;;;;;;;12.98;8.80;;;5.30;75.40;;;;;;5053117;28;20067;-71
2021/01/18 05:12:39;;;;;;;14.48;10.02;;;5.30;75.40;;;;;;5053411;28;20516;-72
2021/01/18 05:15:10;;;;;;;13.95;9.73;;;5.20;75.40;;;;;;5053071;28;20037;-72
2021/01/18 05:17:47;;;;;;;15.65;10.30;;;5.80;75.70;;;;;;5053495;28;20036;-72
2021/01/18 05:20:15;;;;;;;14.73;9.25;;;5.50;75.60;;;;;;5052654;28;20084;-71
2021/01/18 05:22:49;;;;;;;15.38;9.82;;;5.40;75.50;;;;;;5052982;28;20087;-72
2021/01/18 05:25:15;;;;;;;12.13;9.38;;;5.40;75.50;;;;;;5052559;28;20102;-72
2021/01/18 05:28:01;;;;;;;13.10;9.60;;;5.60;75.70;;;;;;5053056;28;20041;-72
2021/01/18 05:30:29;;;;;;;15.32;9.57;;;5.90;75.80;;;;;;5053382;28;20043;-72
2021/01/18 05:33:15;;;;;;;14.90;9.70;;;5.50;75.60;;;;;;5052831;28;20052;-71
2021/01/18 05:35:48;;;;;;;14.93;9.18;;;5.80;75.80;;;;;;5052817;28;20037;-72
2021/01/18 05:38:15;;;;;;;15.70;10.27;;;5.40;75.50;;;;;;5053791;28;20120;-72
2021/01/18 05:40:46;;;;;;;14.25;9.38;;;5.80;75.80;;;;;;5056264;28;20071;-72
2021/01/18 05:43:16;;;;;;;15.88;9.73;;;5.70;75.70;;;;;;5056837;28;20051;-72
2021/01/18 05:45:43;;;;;;;14.88;9.90;;;5.80;75.70;;;;;;5056515;28;20045;-71
2021/01/18 05:48:11;;;;;;;17.98;10.65;;;5.60;75.60;;;;;;5056960;28;20037;-72
2021/01/18 05:50:37;;;;;;;16.50;10.90;;;5.90;75.80;;;;;;5055967;28;20040;-71
2021/01/18 05:53:29;;;;;;;16.88;10.48;;;5.80;75.70;;;;;;5056843;28;20045;-71
2021/01/18 05:55:55;;;;;;;11.73;8.82;;;5.80;75.70;;;;;;5056839;28;20116;-72
2021/01/18 05:58:32;;;;;;;14.52;9.30;;;5.80;75.80;;;;;;5056671;28;20048;-72
2021/01/18 06:00:59;;;;;;;13.57;9.05;;;5.90;75.90;;;;;;5055607;28;20049;-71
2021/01/18 06:03:31;;;;;;;19.33;10.02;;;5.80;75.80;;;;;;5047896;28;20574;-73
2021/01/18 06:05:59;;;;;;;14.05;9.20;;;5.90;75.90;;;;;;5052743;28;20052;-71
2021/01/18 06:08:26;;;;;;;12.70;9.50;;;6.00;76.00;;;;;;5042618;28;20116;-71
2021/01/18 06:11:01;;;;;;;14.43;9.52;;;6.00;76.00;;;;;;5054623;28;20045;-71
2021/01/18 06:13:34;;;;;;;13.95;9.45;;;6.10;76.00;;;;;;5045999;28;20087;-71
2021/01/18 06:16:03;;;;;;;13.52;10.18;;;6.20;76.10;;;;;;5054455;28;20048;-71
2021/01/18 06:18:39;;;;;;;14.93;10.20;;;6.10;76.10;;;;;;5054352;28;20040;-71
2021/01/18 06:21:08;;;;;;;17.23;10.30;;;6.10;76.10;;;;;;5034235;28;20049;-71
2021/01/18 06:23:35;;;;;;;13.23;8.90;;;6.30;76.20;;;;;;5051171;28;20033;-71
2021/01/18 06:26:01;;;;;;;13.40;9.05;;;6.10;76.00;;;;;;5055870;28;20499;-71
2021/01/18 06:28:27;;;;;;;14.43;9.43;;;6.30;76.80;;;;;;5056460;28;20096;-71
2021/01/18 06:30:57;;;;;;;14.32;10.00;;;6.10;76.10;;;;;;5055777;28;20528;-71
2021/01/18 06:33:41;;;;;;;15.02;10.00;;;6.20;76.20;;;;;;5056201;28;20039;-71
2021/01/18 06:36:18;;;;;;;13.68;9.40;;;6.10;76.20;;;;;;5055546;28;20040;-72
2021/01/18 06:38:58;;;;;;;16.15;10.30;;;6.10;76.10;;;;;;5055998;28;20041;-72
2021/01/18 06:41:25;;;;;;;15.77;10.45;;;6.10;76.20;;;;;;5055697;28;20052;-72
2021/01/18 06:43:51;;;;;;;13.65;9.25;;;6.00;76.20;;;;;;5055687;28;20098;-72
2021/01/18 06:46:24;;;;;;;16.73;10.52;;;6.00;76.30;;;;;;5055488;28;20041;-71
2021/01/18 06:48:52;;;;;;;15.23;10.23;;;6.30;76.40;;;;;;5055599;28;20037;-71
2021/01/18 06:51:23;;;;;;;15.88;10.35;;;6.40;76.40;;;;;;5056083;28;20063;-71
2021/01/18 06:53:50;;;;;;;18.02;11.23;;;6.30;76.40;;;;;;5055880;28;20064;-71
2021/01/18 06:56:35;;;;;;;17.40;11.00;;;6.20;76.30;;;;;;5054867;28;20076;-71
2021/01/18 06:59:07;;;;;;;16.83;10.60;;;6.30;76.30;;;;;;5055162;28;20048;-71
2021/01/18 07:01:40;;;;;;;16.23;10.25;;;6.30;76.40;;;;;;5055153;28;20345;-70
2021/01/18 07:04:14;;;;;;;15.70;10.75;;;6.10;76.40;;;;;;5055792;28;20091;-71
2021/01/18 07:06:44;;;;;;;19.90;11.82;;;6.30;76.50;;;;;;5055209;28;20472;-70
2021/01/18 07:09:12;;;;;;;18.63;11.85;;;6.50;76.70;;;;;;5055186;28;20037;-70
2021/01/18 07:11:39;;;;;;;17.63;12.02;;;6.30;76.60;;;;;;5055567;28;20049;-70
2021/01/18 07:14:07;;;;;;;20.70;11.93;;;6.20;76.50;;;;;;5055092;28;20051;-71
2021/01/18 07:16:33;;;;;;;16.25;11.27;;;6.40;76.60;;;;;;5054946;28;20046;-70
2021/01/18 07:19:01;;;;;;;18.13;11.52;;;6.40;76.50;;;;;;5054758;28;20036;-70
2021/01/18 07:21:52;;;;;;;16.33;10.35;;;6.50;76.50;;;;;;5054706;28;20045;-71
2021/01/18 07:24:28;;;;;;;17.88;11.05;;;6.30;76.50;;;;;;5054389;28;20084;-72
2021/01/18 07:27:04;;;;;;;16.08;10.93;;;6.20;76.40;;;;;;5054629;28;20060;-72
2021/01/18 07:29:32;;;;;;;13.90;9.38;;;6.50;76.60;;;;;;5052993;28;20041;-73
2021/01/18 07:31:59;;;;;;;18.85;11.25;;;6.40;76.60;;;;;;5054612;28;20127;-72
2021/01/18 07:34:28;;;;;;;14.30;9.80;;;6.50;76.60;;;;;;5054612;28;20653;-72
2021/01/18 07:37:07;;;;;;;16.77;10.48;;;6.30;76.50;;;;;;5054205;28;20045;-72
2021/01/18 07:39:38;;;;;;;14.30;9.70;;;6.70;76.70;;;;;;5054711;28;20037;-72
2021/01/18 07:42:05;;;;;;;15.43;11.25;;;6.40;76.50;;;;;;5053788;28;20071;-71
2021/01/18 07:44:46;;;;;;;15.07;10.52;;;6.50;76.60;;;;;;5055010;28;20045;-72
2021/01/18 07:47:13;;;;;;;18.50;11.27;;;6.40;76.60;;;;;;5054569;28;20029;-72
2021/01/18 07:49:45;;;;;;;16.73;11.38;;;6.60;76.70;;;;;;5054632;28;20064;-74
2021/01/18 07:52:16;;;;;;;14.88;11.02;;;6.50;76.60;;;;;;5054614;28;20049;-73
2021/01/18 07:54:43;;;;;;;15.70;10.75;;;6.50;76.60;;;;;;5053977;28;20037;-72
2021/01/18 07:57:28;;;;;;;14.05;10.15;;;6.50;76.60;;;;;;5054217;28;20033;-73
2021/01/18 08:00:18;;;;;;;18.23;11.27;;;6.50;76.80;;;;;;5054469;28;20080;-72
2021/01/18 08:02:52;;;;;;;16.85;10.93;;;6.60;77.00;;;;;;5053948;28;20041;-72
2021/01/18 08:05:25;;;;;;;18.90;11.38;;;6.70;77.00;;;;;;5053954;28;20056;-73
2021/01/18 08:08:03;;;;;;;18.35;11.70;;;6.60;76.90;;;;;;5054165;28;20122;-73
2021/01/18 08:10:49;;;;;;;15.93;10.57;;;6.80;77.00;;;;;;5049120;28;20519;-75
2021/01/18 08:13:27;;;;;;;;;;;6.80;77.00;;;;;;5045821;28;20060;-73
2021/01/18 08:15:54;;;;;;;14.70;9.68;;;6.80;77.10;;;;;;5053109;28;19912;-74
2021/01/18 08:18:29;;;;;;;16.88;9.55;;;7.00;77.30;;;;;;5053293;28;20045;-74
2021/01/18 08:20:55;;;;;;;16.20;10.13;;;6.70;77.00;;;;;;5053137;28;20072;-75
2021/01/18 08:23:47;;;;;;;19.75;12.82;;;6.80;77.20;;;;;;5053918;28;20503;-74
2021/01/18 08:26:14;;;;;;;20.98;13.90;;;6.70;77.10;;;;;;5050836;28;20080;-74
2021/01/18 08:28:48;;;;;;;24.63;14.05;;;6.80;77.10;;;;;;5053445;28;20049;-74
2021/01/18 08:31:14;;;;;;;24.40;16.60;;;7.00;77.20;;;;;;5053861;28;20033;-74
2021/01/18 08:33:40;;;;;;;31.02;17.33;;;7.10;77.20;;;;;;5052565;28;20500;-74
2021/01/18 08:36:06;;;;;;;25.48;15.48;;;7.00;77.10;;;;;;5053394;28;20033;-74
2021/01/18 08:38:32;;;;;;;26.92;13.90;;;7.30;77.30;;;;;;5053546;28;20033;-74
2021/01/18 08:41:08;;;;;;;26.05;14.73;;;7.10;77.20;;;;;;5053651;28;20087;-74
2021/01/18 08:43:49;;;;;;;25.83;15.55;;;7.10;77.20;;;;;;5052805;28;20464;-74
2021/01/18 08:46:36;;;;;;;27.35;15.65;;;7.20;77.30;;;;;;5051876;28;20045;-74
2021/01/18 08:49:29;;;;;;;22.65;15.35;;;7.10;77.20;;;;;;5050303;28;20045;-74
2021/01/18 08:51:56;;;;;;;22.30;14.63;;;7.20;77.30;;;;;;5053688;28;20045;-73
2021/01/18 08:54:37;;;;;;;23.83;15.48;;;7.20;77.40;;;;;;5053406;28;20043;-74
2021/01/18 08:57:23;;;;;;;25.75;15.35;;;7.30;77.50;;;;;;5053821;28;20068;-74
2021/01/18 09:00:09;;;;;;;23.20;15.15;;;7.50;77.50;;;;;;5053589;28;20033;-74
2021/01/18 09:02:36;;;;;;;22.58;15.43;;;7.40;77.50;;;;;;5054457;28;20065;-73
2021/01/18 09:05:19;;;;;;;27.65;17.30;;;7.60;77.50;;;;;;5053325;28;20492;-74
2021/01/18 09:07:46;;;;;;;61.40;32.42;;;7.60;77.60;;;;;;5047820;28;20037;-74
2021/01/18 09:10:20;;;;;;;72.57;39.42;;;7.60;77.50;;;;;;5039046;28;20041;-74
2021/01/18 09:12:47;;;;;;;54.53;31.25;;;7.70;77.50;;;;;;5035089;28;20038;-74
2021/01/18 09:15:16;;;;;;;40.80;26.00;;;7.30;77.20;;;;;;5036388;28;20044;-74
2021/01/18 09:17:42;;;;;;;38.03;23.73;;;7.70;77.50;;;;;;5044403;28;20040;-74
2021/01/18 09:20:09;;;;;;;38.40;23.20;;;7.80;77.50;;;;;;5056638;28;20485;-74
2021/01/18 09:22:37;;;;;;;51.78;28.55;;;7.90;77.50;;;;;;5056149;28;20043;-74
2021/01/18 09:25:13;;;;;;;66.03;36.05;;;7.80;77.40;;;;;;5055835;28;20051;-74
2021/01/18 09:27:39;;;;;;;91.25;43.60;;;7.90;77.40;;;;;;5053748;28;20115;-74
2021/01/18 09:30:06;;;;;;;79.15;38.95;;;8.00;77.50;;;;;;5053780;28;20136;-74
2021/01/18 09:32:33;;;;;;;68.03;33.78;;;8.10;77.50;;;;;;5055572;28;20029;-74
2021/01/18 09:35:12;;;;;;;35.95;19.80;;;8.10;77.40;;;;;;5056471;28;20041;-73
2021/01/18 09:37:48;;;;;;;26.15;14.57;;;8.20;77.30;;;;;;5056961;28;20037;-74
2021/01/18 09:40:15;;;;;;;22.95;13.40;;;8.20;77.20;;;;;;5056469;28;20041;-74
2021/01/18 09:42:44;;;;;;;20.15;13.10;;;8.20;77.10;;;;;;5056865;28;20036;-74
2021/01/18 09:45:11;;;;;;;25.10;13.70;;;8.40;77.30;;;;;;5056965;28;20033;-74
2021/01/18 09:47:37;;;;;;;19.98;11.90;;;8.40;77.20;;;;;;5056830;28;20087;-73
2021/01/18 09:50:09;;;;;;;23.27;14.38;;;8.50;77.20;;;;;;5056844;28;20045;-74
2021/01/18 09:52:46;;;;;;;30.42;15.30;;;8.50;77.10;;;;;;5056449;28;20075;-73
2021/01/18 09:55:23;;;;;;;26.63;16.23;;;8.60;77.20;;;;;;5056576;28;20071;-74
2021/01/18 09:58:03;;;;;;;27.02;17.10;;;8.80;77.10;;;;;;5055917;28;20438;-74
2021/01/18 10:00:33;;;;;;;30.13;18.05;;;8.90;77.10;;;;;;5056096;28;20460;-74
2021/01/18 10:03:00;;;;;;;25.65;16.73;;;8.80;77.00;;;;;;5056735;28;20125;-74
2021/01/18 10:05:42;;;;;;;20.50;14.65;;;8.90;77.00;;;;;;5055535;28;20039;-73
2021/01/18 10:08:17;;;;;;;21.60;13.73;;;9.00;77.00;;;;;;5056309;28;20041;-74
2021/01/18 10:10:46;;;;;;;19.15;12.48;;;9.10;77.00;;;;;;5055885;28;20044;-73
2021/01/18 10:13:18;;;;;;;20.58;12.43;;;9.30;77.30;;;;;;5056257;28;20069;-74
2021/01/18 10:15:47;;;;;;;17.42;10.85;;;9.30;77.30;;;;;;5056307;28;20496;-74
2021/01/18 10:18:49;;;;;;;18.00;11.55;;;9.60;77.20;;;;;;5055754;28;20036;-74
2021/01/18 10:21:15;;;;;;;18.73;11.77;;;9.80;77.10;;;;;;5055924;28;20080;-74
2021/01/18 10:23:48;;;;;;;17.10;11.05;;;9.90;76.90;;;;;;5055364;28;20039;-74
2021/01/18 10:26:21;;;;;;;21.88;13.50;;;9.90;76.70;;;;;;5055998;28;20264;-74
2021/01/18 10:28:57;;;;;;;19.52;11.88;;;10.00;76.60;;;;;;5056507;28;20044;-73
2021/01/18 10:31:24;;;;;;;15.05;9.77;;;10.20;76.60;;;;;;5056230;28;20041;-74
2021/01/18 10:34:15;;;;;;;14.60;9.05;;;10.10;76.40;;;;;;5056603;28;20037;-74
2021/01/18 10:36:46;;;;;;;18.42;10.65;;;10.20;76.40;;;;;;5056116;28;20036;-74
2021/01/18 10:39:32;;;;;;;15.55;9.43;;;10.30;76.30;;;;;;5056271;28;20447;-74
2021/01/18 10:42:15;;;;;;;15.18;9.07;;;10.50;76.30;;;;;;5056041;28;20043;-73
2021/01/18 10:44:55;;;;;;;15.80;8.73;;;10.40;76.20;;;;;;5056123;28;20053;-74
2021/01/18 10:47:23;;;;;;;12.27;7.68;;;10.50;76.30;;;;;;5056002;28;20041;-73
2021/01/18 10:49:53;;;;;;;13.07;8.68;;;10.50;76.30;;;;;;5056341;28;20041;-74
2021/01/18 10:52:30;;;;;;;14.40;9.07;;;10.60;76.30;;;;;;5056045;28;20156;-73
2021/01/18 10:55:00;;;;;;;17.02;9.93;;;10.60;76.30;;;;;;5055419;28;20045;-74
2021/01/18 10:57:27;;;;;;;16.75;9.65;;;10.70;76.20;;;;;;5055949;28;20527;-74
2021/01/18 11:00:20;;;;;;;16.23;8.57;;;10.70;76.30;;;;;;5055943;28;20041;-74
2021/01/18 11:02:54;;;;;;;16.80;8.18;;;10.70;76.40;;;;;;5042603;28;20057;-73
2021/01/18 11:05:31;;;;;;;13.80;7.90;;;10.60;76.00;;;;;;5052563;28;20044;-73
2021/01/18 11:07:59;;;;;;;14.35;8.27;;;10.70;76.20;;;;;;5055296;28;20029;-74
2021/01/18 11:10:26;;;;;;;18.17;8.48;;;11.10;76.50;;;;;;5049606;28;20123;-74
2021/01/18 11:13:08;;;;;;;14.77;8.60;;;10.80;76.30;;;;;;5049981;28;20091;-75
2021/01/18 11:15:38;;;;;;;15.40;8.40;;;10.80;76.20;;;;;;5053418;28;20219;-75
2021/01/18 11:18:05;;;;;;;16.60;9.13;;;10.80;76.30;;;;;;5053123;28;20045;-74
2021/01/18 11:20:32;;;;;;;17.95;9.30;;;11.10;76.60;;;;;;5053773;28;20060;-74
2021/01/18 11:22:58;;;;;;;18.15;9.02;;;11.00;76.50;;;;;;5054713;28;20037;-74
2021/01/18 11:25:25;;;;;;;15.88;9.07;;;11.30;76.60;;;;;;5054601;28;20052;-74
2021/01/18 11:27:51;;;;;;;15.98;8.70;;;11.20;76.50;;;;;;5051382;28;20116;-74
2021/01/18 11:30:17;;;;;;;12.23;8.00;;;11.30;76.60;;;;;;5053097;28;20119;-74
2021/01/18 11:32:43;;;;;;;14.88;7.65;;;11.40;76.80;;;;;;5054886;28;20487;-74
2021/01/18 11:35:11;;;;;;;12.77;7.03;;;11.50;76.60;;;;;;5053686;28;20041;-74
2021/01/18 11:37:38;;;;;;;15.27;8.05;;;11.70;76.50;;;;;;5054671;28;20086;-74
2021/01/18 11:40:10;;;;;;;14.15;8.40;;;11.80;76.60;;;;;;5054020;28;20055;-74
2021/01/18 11:42:37;;;;;;;13.93;7.85;;;12.00;76.50;;;;;;5054178;28;20044;-74
2021/01/18 11:45:06;;;;;;;18.02;9.07;;;12.10;76.30;;;;;;5053149;28;20052;-74
2021/01/18 11:47:37;;;;;;;16.17;7.72;;;12.20;76.30;;;;;;5054756;28;20407;-74
2021/01/18 11:50:07;;;;;;;15.45;6.30;;;12.40;76.20;;;;;;5054682;28;20041;-74
2021/01/18 11:52:42;;;;;;;16.70;7.32;;;12.50;76.00;;;;;;5054892;28;20033;-74
2021/01/18 11:55:09;;;;;;;;;;;12.60;76.00;;;;;;5055533;28;20064;-74
2021/01/18 11:57:35;;;;;;;13.82;6.05;;;12.80;76.20;;;;;;5053226;28;20373;-74
2021/01/18 12:00:02;;;;;;;14.00;6.15;;;12.80;75.80;;;;;;5054775;28;20132;-74
2021/01/18 12:02:28;;;;;;;12.98;6.38;;;13.00;75.90;;;;;;5054067;28;20044;-74
2021/01/18 12:04:54;;;;;;;11.60;4.90;;;13.00;75.60;;;;;;5054313;28;20041;-74
2021/01/18 12:07:20;;;;;;;12.55;4.95;;;13.00;75.20;;;;;;5054097;28;20037;-74
2021/01/18 12:09:45;;;;;;;12.85;4.60;;;13.10;75.20;;;;;;5054538;28;20496;-73
2021/01/18 12:12:11;;;;;;;11.50;3.88;;;13.10;75.30;;;;;;5054397;28;20102;-74
2021/01/18 12:14:37;;;;;;;12.40;3.85;;;13.10;75.10;;;;;;5054335;28;20041;-74
2021/01/18 12:17:04;;;;;;;9.57;4.10;;;13.10;74.90;;;;;;5054150;28;20088;-74
2021/01/18 12:19:31;;;;;;;11.77;3.65;;;13.20;74.90;;;;;;5052934;28;20091;-74
2021/01/18 12:21:57;;;;;;;11.15;3.78;;;13.10;74.80;;;;;;5053565;28;20068;-74
2021/01/18 12:24:23;;;;;;;11.55;4.00;;;13.10;74.80;;;;;;5053500;28;20511;-74
2021/01/18 12:26:53;;;;;;;11.68;3.90;;;13.10;74.80;;;;;;5053568;28;20082;-74
2021/01/18 12:29:19;;;;;;;10.52;3.55;;;13.00;74.70;;;;;;5054054;28;20061;-74
2021/01/18 12:31:45;;;;;;;15.88;3.78;;;13.10;74.80;;;;;;5054273;28;20072;-74
2021/01/18 12:34:11;;;;;;;11.55;2.83;;;13.00;74.70;;;;;;5053902;28;20448;-74
2021/01/18 12:36:37;;;;;;;13.43;3.00;;;13.10;74.60;;;;;;5053185;28;20060;-74
2021/01/18 12:39:08;;;;;;;10.35;2.70;;;13.10;74.70;;;;;;5053661;28;20492;-74
2021/01/18 12:41:39;;;;;;;10.68;2.75;;;13.30;74.60;;;;;;5053495;28;20053;-74
2021/01/18 12:44:06;;;;;;;11.50;2.80;;;13.30;74.30;;;;;;5053960;28;20067;-74
2021/01/18 12:46:33;;;;;;;11.80;3.00;;;13.50;74.20;;;;;;5053275;28;20037;-74
2021/01/18 12:48:59;;;;;;;8.85;2.83;;;13.60;74.00;;;;;;5052961;28;20048;-74
2021/01/18 12:51:25;;;;;;;10.70;3.10;;;13.70;74.00;;;;;;5053069;28;20041;-74
2021/01/18 12:53:51;;;;;;;12.70;3.40;;;13.70;73.70;;;;;;5053563;28;20044;-74
2021/01/18 12:56:28;;;;;;;11.48;2.95;;;13.70;73.70;;;;;;5052855;28;20066;-74
2021/01/18 12:58:56;;;;;;;12.63;3.13;;;13.80;73.40;;;;;;5053422;28;20045;-74